createdAt,value
2019-03-28T00:00:52.455Z,8.90
2019-03-28T00:03:22.088Z,8.90
2019-03-28T00:05:51.735Z,8.90
2019-03-28T00:08:21.363Z,8.90
2019-03-28T00:10:50.907Z,8.90
2019-03-28T00:13:20.535Z,8.90
2019-03-28T00:15:50.077Z,8.90
2019-03-28T00:18:19.700Z,8.90
2019-03-28T00:20:49.411Z,8.90
2019-03-28T00:23:33.975Z,8.90
2019-03-28T00:26:03.722Z,8.80
2019-03-28T00:28:33.415Z,8.80
2019-03-28T00:31:03.115Z,8.80
2019-03-28T00:33:32.824Z,8.80
2019-03-28T00:36:02.542Z,8.80
2019-03-28T00:38:32.172Z,8.80
2019-03-28T00:41:01.819Z,8.80
2019-03-28T00:43:31.515Z,8.80
2019-03-28T00:46:01.123Z,8.80
2019-03-28T00:48:30.808Z,8.80
2019-03-28T00:51:00.431Z,8.70
2019-03-28T00:53:30.154Z,8.80
2019-03-28T00:55:59.832Z,8.80
2019-03-28T00:58:29.464Z,8.70
2019-03-28T01:00:59.175Z,8.70
2019-03-28T01:03:28.791Z,8.70
2019-03-28T01:05:58.492Z,8.70
2019-03-28T01:08:28.223Z,8.70
2019-03-28T01:10:57.847Z,8.70
2019-03-28T01:13:27.487Z,8.70
2019-03-28T01:15:57.042Z,8.70
2019-03-28T01:18:26.687Z,8.70
2019-03-28T01:20:56.035Z,8.60
2019-03-28T01:23:25.475Z,8.60
2019-03-28T01:25:54.910Z,8.60
2019-03-28T01:28:24.342Z,8.60
2019-03-28T01:30:53.800Z,8.60
2019-03-28T01:33:23.231Z,8.60
2019-03-28T01:35:52.931Z,8.60
2019-03-28T01:38:22.380Z,8.60
2019-03-28T01:40:51.888Z,8.60
2019-03-28T01:43:21.255Z,8.50
2019-03-28T01:45:50.739Z,8.50
2019-03-28T01:48:20.162Z,8.60
2019-03-28T01:50:49.519Z,8.50
2019-03-28T01:53:19.090Z,8.60
2019-03-28T01:55:48.748Z,8.60
2019-03-28T01:58:18.374Z,8.60
2019-03-28T02:00:47.748Z,8.60
2019-03-28T02:03:17.187Z,8.60
2019-03-28T02:05:46.557Z,8.60
2019-03-28T02:08:15.944Z,8.60
2019-03-28T02:10:45.648Z,8.60
2019-03-28T02:13:15.375Z,8.60
2019-03-28T02:15:44.956Z,8.50
2019-03-28T02:18:14.571Z,8.50
2019-03-28T02:20:44.199Z,8.50
2019-03-28T02:23:13.779Z,8.60
2019-03-28T02:25:43.493Z,8.50
2019-03-28T02:28:13.419Z,8.50
2019-03-28T02:30:43.073Z,8.60
2019-03-28T02:33:12.808Z,8.50
2019-03-28T02:35:42.348Z,8.50
2019-03-28T02:38:12.040Z,8.50
2019-03-28T02:40:42.559Z,8.50
2019-03-28T02:43:12.567Z,8.50
2019-03-28T02:45:42.224Z,8.50
2019-03-28T02:48:11.849Z,8.50
2019-03-28T02:50:41.556Z,8.50
2019-03-28T02:53:11.188Z,8.50
2019-03-28T02:55:40.790Z,8.50
2019-03-28T02:58:10.918Z,8.50
2019-03-28T03:00:40.839Z,8.50
2019-03-28T03:03:10.521Z,8.40
2019-03-28T03:05:40.202Z,8.50
2019-03-28T03:08:09.840Z,8.50
2019-03-28T03:10:39.462Z,8.50
2019-03-28T03:13:09.067Z,8.50
2019-03-28T03:15:38.707Z,8.50
2019-03-28T03:18:08.325Z,8.50
2019-03-28T03:20:37.980Z,8.50
2019-03-28T03:23:07.646Z,8.40
2019-03-28T03:25:37.347Z,8.40
2019-03-28T03:28:06.875Z,8.40
2019-03-28T03:30:36.539Z,8.40
2019-03-28T03:33:06.280Z,8.40
2019-03-28T03:35:35.915Z,8.50
2019-03-28T03:38:05.585Z,8.40
2019-03-28T03:40:35.300Z,8.40
2019-03-28T03:43:04.973Z,8.40
2019-03-28T03:45:35.589Z,8.40
2019-03-28T03:48:05.555Z,8.40
2019-03-28T03:50:35.124Z,8.40
2019-03-28T03:53:05.012Z,8.30
2019-03-28T03:55:34.707Z,8.30
2019-03-28T03:58:15.538Z,8.30
2019-03-28T04:00:36.196Z,8.20
2019-03-28T04:03:05.895Z,8.20
2019-03-28T04:05:35.597Z,8.10
2019-03-28T04:08:05.280Z,8.10
2019-03-28T04:10:34.899Z,8.00
2019-03-28T04:13:04.538Z,8.00
2019-03-28T04:15:34.115Z,8.00
2019-03-28T04:18:03.727Z,7.90
2019-03-28T04:20:33.384Z,7.90
2019-03-28T04:23:03.857Z,7.90
2019-03-28T04:25:33.939Z,7.80
2019-03-28T04:28:03.652Z,7.80
2019-03-28T04:30:33.257Z,7.80
2019-03-28T04:33:02.857Z,7.80
2019-03-28T04:35:32.515Z,7.70
2019-03-28T04:38:02.062Z,7.70
2019-03-28T04:40:31.739Z,7.70
2019-03-28T04:43:01.465Z,7.70
2019-03-28T04:45:31.211Z,7.60
2019-03-28T04:48:01.519Z,7.60
2019-03-28T04:50:31.361Z,7.60
2019-03-28T04:53:01.051Z,7.50
2019-03-28T04:55:30.608Z,7.50
2019-03-28T04:58:00.322Z,7.50
2019-03-28T05:00:29.931Z,7.50
2019-03-28T05:02:59.543Z,7.50
2019-03-28T05:05:29.182Z,7.50
2019-03-28T05:07:58.857Z,7.50
2019-03-28T05:10:28.557Z,7.50
2019-03-28T05:12:58.267Z,7.50
2019-03-28T05:15:27.802Z,7.60
2019-03-28T05:17:57.347Z,7.60
2019-03-28T05:20:26.995Z,7.60
2019-03-28T05:22:56.605Z,7.60
2019-03-28T05:25:26.288Z,7.70
2019-03-28T05:27:55.952Z,7.70
2019-03-28T05:30:25.564Z,7.70
2019-03-28T05:32:55.104Z,7.70
2019-03-28T05:35:24.947Z,7.70
2019-03-28T05:37:54.599Z,7.70
2019-03-28T05:40:24.147Z,7.70
2019-03-28T05:42:53.806Z,7.70
2019-03-28T05:45:23.349Z,7.80
2019-03-28T05:47:52.959Z,7.80
2019-03-28T05:50:22.597Z,7.80
2019-03-28T05:52:52.307Z,7.80
2019-03-28T05:55:21.931Z,7.80
2019-03-28T05:57:51.648Z,7.80
2019-03-28T06:00:22.283Z,7.80
2019-03-28T06:02:51.903Z,7.90
2019-03-28T06:05:21.540Z,7.90
2019-03-28T06:07:51.275Z,7.90
2019-03-28T06:10:20.896Z,7.90
2019-03-28T06:17:19.560Z,8.00
2019-03-28T06:19:49.171Z,8.10
2019-03-28T06:22:18.726Z,8.10
2019-03-28T06:24:48.375Z,8.20
2019-03-28T06:27:18.028Z,8.30
2019-03-28T06:29:47.786Z,8.30
2019-03-28T06:32:17.431Z,8.40
2019-03-28T06:34:47.074Z,8.40
2019-03-28T06:37:18.634Z,8.40
2019-03-28T06:39:48.287Z,8.50
2019-03-28T06:42:17.860Z,8.50
2019-03-28T06:44:47.474Z,8.60
2019-03-28T06:47:17.104Z,8.60
2019-03-28T06:49:46.893Z,8.70
2019-03-28T06:52:16.443Z,8.70
2019-03-28T06:54:45.987Z,8.80
2019-03-28T06:57:15.551Z,8.90
2019-03-28T06:59:45.272Z,8.90
2019-03-28T07:02:14.912Z,9.00
2019-03-28T07:04:44.564Z,9.10
2019-03-28T07:07:18.470Z,9.20
2019-03-28T07:09:47.967Z,9.20
2019-03-28T07:12:18.397Z,9.30
2019-03-28T07:14:48.223Z,9.30
2019-03-28T07:17:17.836Z,9.30
2019-03-28T07:19:47.511Z,9.30
2019-03-28T07:22:17.165Z,9.40
2019-03-28T07:24:46.789Z,9.40
2019-03-28T07:27:17.285Z,9.50
2019-03-28T07:29:51.105Z,9.50
2019-03-28T07:32:18.435Z,9.60
2019-03-28T07:34:48.098Z,9.60
2019-03-28T07:37:17.744Z,9.60
2019-03-28T07:39:47.544Z,9.70
2019-03-28T07:42:17.164Z,9.80
2019-03-28T07:44:46.799Z,10.00
2019-03-28T07:47:16.569Z,10.00
2019-03-28T07:49:46.245Z,10.20
2019-03-28T07:52:15.960Z,10.20
2019-03-28T07:54:48.702Z,10.30
2019-03-28T07:57:16.943Z,10.30
2019-03-28T07:59:46.597Z,10.30
2019-03-28T08:02:16.137Z,10.30
2019-03-28T08:04:45.824Z,10.30
2019-03-28T08:07:15.441Z,10.40
2019-03-28T08:09:45.004Z,10.50
2019-03-28T08:12:22.345Z,10.50
2019-03-28T08:14:45.928Z,10.60
2019-03-28T08:17:15.631Z,10.60
2019-03-28T08:19:45.267Z,10.60
2019-03-28T08:22:14.888Z,10.60
2019-03-28T08:24:44.571Z,10.60
2019-03-28T08:27:14.127Z,10.60
2019-03-28T08:29:43.842Z,10.50
2019-03-28T08:32:16.642Z,10.50
2019-03-28T08:34:46.332Z,10.40
2019-03-28T08:37:16.012Z,10.40
2019-03-28T08:39:47.296Z,10.50
2019-03-28T08:42:16.928Z,10.50
2019-03-28T08:44:46.549Z,10.60
2019-03-28T08:47:16.174Z,10.80
2019-03-28T08:49:45.813Z,10.80
2019-03-28T08:52:15.496Z,10.90
2019-03-28T08:54:45.182Z,11.00
2019-03-28T08:57:14.823Z,11.10
2019-03-28T08:59:44.402Z,11.20
2019-03-28T09:02:14.072Z,11.20
2019-03-28T09:04:43.765Z,11.30
2019-03-28T09:07:13.324Z,11.40
2019-03-28T09:09:42.959Z,11.50
2019-03-28T09:12:12.576Z,11.70
2019-03-28T09:14:42.245Z,11.80
2019-03-28T09:17:11.872Z,11.90
2019-03-28T09:19:41.500Z,12.00
2019-03-28T09:22:11.188Z,11.90
2019-03-28T09:24:40.819Z,11.80
2019-03-28T09:27:10.423Z,11.80
2019-03-28T09:29:40.066Z,11.80
2019-03-28T09:32:09.699Z,11.80
2019-03-28T09:34:39.464Z,11.80
2019-03-28T09:37:09.147Z,11.80
2019-03-28T09:39:38.777Z,11.80
2019-03-28T09:42:08.504Z,11.90
2019-03-28T09:44:38.195Z,11.90
2019-03-28T09:47:07.836Z,11.90
2019-03-28T09:49:37.507Z,12.00
2019-03-28T09:52:07.147Z,11.90
2019-03-28T09:54:36.791Z,11.80
2019-03-28T09:57:06.509Z,11.70
2019-03-28T09:59:36.147Z,11.80
2019-03-28T10:02:05.811Z,11.70
2019-03-28T10:04:35.473Z,11.70
2019-03-28T10:07:05.671Z,11.80
2019-03-28T10:09:35.617Z,11.80
2019-03-28T10:12:05.291Z,11.90
2019-03-28T10:14:34.851Z,11.90
2019-03-28T10:17:04.507Z,11.90
2019-03-28T10:19:34.131Z,11.90
2019-03-28T10:22:03.690Z,12.00
2019-03-28T10:24:33.434Z,12.00
2019-03-28T10:27:02.997Z,12.10
2019-03-28T10:29:32.764Z,12.10
2019-03-28T10:32:02.536Z,12.10
2019-03-28T10:34:32.155Z,12.20
2019-03-28T10:37:01.887Z,12.20
2019-03-28T10:39:33.148Z,12.20
2019-03-28T10:42:02.780Z,12.20
2019-03-28T10:44:32.323Z,12.30
2019-03-28T10:47:04.746Z,12.30
2019-03-28T10:49:33.359Z,12.40
2019-03-28T10:52:04.145Z,12.40
2019-03-28T10:54:33.929Z,12.40
2019-03-28T10:57:13.699Z,12.40
2019-03-28T10:59:34.927Z,12.40
2019-03-28T11:02:04.650Z,12.60
2019-03-28T11:04:34.200Z,12.90
2019-03-28T11:07:03.744Z,13.00
2019-03-28T11:09:34.093Z,13.00
2019-03-28T11:12:04.465Z,13.00
2019-03-28T11:14:34.093Z,13.10
2019-03-28T11:17:03.826Z,13.00
2019-03-28T11:19:33.496Z,13.00
2019-03-28T11:22:03.194Z,13.00
2019-03-28T11:24:32.838Z,13.00
2019-03-28T11:27:02.568Z,13.10
2019-03-28T11:29:32.202Z,13.00
2019-03-28T11:32:01.959Z,13.00
2019-03-28T11:34:31.696Z,13.10
2019-03-28T11:37:01.251Z,13.20
2019-03-28T11:39:30.983Z,13.20
2019-03-28T11:42:02.262Z,13.20
2019-03-28T11:44:31.888Z,13.20
2019-03-28T11:47:01.506Z,13.20
2019-03-28T11:49:31.239Z,13.30
2019-03-28T11:52:00.987Z,13.50
2019-03-28T11:54:30.688Z,13.50
2019-03-28T11:57:00.460Z,13.70
2019-03-28T11:59:30.030Z,13.80
2019-03-28T12:02:13.608Z,13.90
2019-03-28T12:04:31.116Z,13.90
2019-03-28T12:07:00.734Z,14.00
2019-03-28T12:09:30.461Z,13.90
2019-03-28T12:12:00.084Z,14.10
2019-03-28T12:14:29.752Z,14.00
2019-03-28T12:16:59.425Z,14.20
2019-03-28T12:19:29.048Z,14.10
2019-03-28T12:21:58.797Z,14.10
2019-03-28T12:24:28.435Z,14.20
2019-03-28T12:26:58.057Z,14.10
2019-03-28T12:29:27.697Z,14.10
2019-03-28T12:31:57.314Z,14.10
2019-03-28T12:34:26.960Z,14.00
2019-03-28T12:36:56.595Z,13.90
2019-03-28T12:39:26.251Z,13.60
2019-03-28T12:41:55.944Z,13.30
2019-03-28T12:44:25.491Z,13.20
2019-03-28T12:46:55.019Z,13.00
2019-03-28T12:49:24.690Z,12.90
2019-03-28T12:51:54.304Z,12.80
2019-03-28T12:54:23.926Z,12.70
2019-03-28T12:56:53.477Z,12.60
2019-03-28T12:59:23.031Z,12.50
2019-03-28T13:01:55.037Z,12.50
2019-03-28T13:04:24.019Z,12.50
2019-03-28T13:06:53.651Z,12.50
2019-03-28T13:09:23.375Z,12.50
2019-03-28T13:11:52.999Z,12.50
2019-03-28T13:14:22.625Z,12.60
2019-03-28T13:16:52.322Z,12.60
2019-03-28T13:19:22.022Z,12.70
2019-03-28T13:21:51.723Z,12.70
2019-03-28T13:24:21.368Z,12.70
2019-03-28T13:26:50.986Z,12.70
2019-03-28T13:29:20.539Z,12.70
2019-03-28T13:31:50.155Z,12.70
2019-03-28T13:34:19.746Z,12.70
2019-03-28T13:36:49.270Z,12.70
2019-03-28T13:39:18.878Z,12.80
2019-03-28T13:41:48.456Z,12.80
2019-03-28T13:44:18.052Z,12.90
2019-03-28T13:46:47.671Z,12.90
2019-03-28T13:49:17.253Z,12.90
2019-03-28T13:51:46.849Z,13.00
2019-03-28T13:54:16.459Z,13.00
2019-03-28T13:56:46.094Z,13.00
2019-03-28T13:59:15.601Z,13.10
2019-03-28T14:01:45.231Z,13.10
2019-03-28T14:04:14.834Z,13.00
2019-03-28T14:06:44.456Z,13.00
2019-03-28T14:09:13.989Z,13.00
2019-03-28T14:11:43.523Z,13.00
2019-03-28T14:14:13.040Z,12.90
2019-03-28T14:16:42.586Z,12.90
2019-03-28T14:19:12.106Z,12.80
2019-03-28T14:21:41.697Z,12.80
2019-03-28T14:24:11.869Z,12.80
2019-03-28T14:26:41.588Z,12.80
2019-03-28T14:29:11.170Z,12.70
2019-03-28T14:31:40.777Z,12.70
2019-03-28T14:34:10.367Z,12.70
2019-03-28T14:36:39.905Z,12.70
2019-03-28T14:39:09.484Z,12.70
2019-03-28T14:41:39.335Z,12.60
2019-03-28T14:44:08.945Z,12.60
2019-03-28T14:46:38.598Z,12.60
2019-03-28T14:49:08.285Z,12.60
2019-03-28T14:51:38.023Z,12.50
2019-03-28T14:54:07.542Z,12.50
2019-03-28T14:56:37.134Z,12.50
2019-03-28T14:59:06.718Z,12.50
2019-03-28T15:01:36.304Z,12.40
2019-03-28T15:04:05.965Z,12.50
2019-03-28T15:06:35.499Z,12.50
2019-03-28T15:09:07.713Z,12.50
2019-03-28T15:11:37.298Z,12.50
2019-03-28T15:14:06.854Z,12.50
2019-03-28T15:16:37.601Z,12.50
2019-03-28T15:19:07.462Z,12.50
2019-03-28T15:21:37.050Z,12.60
2019-03-28T15:24:06.585Z,12.60
2019-03-28T15:26:36.214Z,12.60
2019-03-28T15:29:05.814Z,12.60
2019-03-28T15:31:35.460Z,12.60
2019-03-28T15:34:05.055Z,12.60
2019-03-28T15:36:34.634Z,12.50
2019-03-28T15:39:05.759Z,12.50
2019-03-28T15:41:35.489Z,12.60
2019-03-28T15:44:05.035Z,12.60
2019-03-28T15:46:34.662Z,12.60
2019-03-28T15:49:04.254Z,12.60
2019-03-28T15:51:33.919Z,12.60
2019-03-28T15:54:03.564Z,12.60
2019-03-28T15:56:33.214Z,12.60
2019-03-28T15:59:02.771Z,12.60
2019-03-28T16:01:34.567Z,12.70
2019-03-28T16:04:04.103Z,12.70
2019-03-28T16:06:33.637Z,12.70
2019-03-28T16:09:04.174Z,12.70
2019-03-28T16:11:33.829Z,12.70
2019-03-28T16:14:03.433Z,12.70
2019-03-28T16:16:33.160Z,12.70
2019-03-28T16:19:02.766Z,12.70
2019-03-28T16:21:32.406Z,12.80
2019-03-28T16:24:02.366Z,12.80
2019-03-28T16:26:32.561Z,12.80
2019-03-28T16:29:02.443Z,12.80
2019-03-28T16:31:32.335Z,12.80
2019-03-28T16:34:07.243Z,12.70
2019-03-28T16:36:35.631Z,12.70
2019-03-28T16:39:07.544Z,12.70
2019-03-28T16:41:39.844Z,12.70
2019-03-28T16:44:09.714Z,12.70
2019-03-28T16:46:39.663Z,12.70
2019-03-28T16:49:11.405Z,12.60
2019-03-28T16:51:43.474Z,12.60
2019-03-28T16:54:14.078Z,12.50
2019-03-28T16:56:49.797Z,12.50
2019-03-28T16:59:21.467Z,12.50
2019-03-28T17:01:51.342Z,12.40
2019-03-28T17:04:26.539Z,12.40
2019-03-28T17:06:56.309Z,12.30
2019-03-28T17:09:26.445Z,12.20
2019-03-28T17:11:56.905Z,12.10
2019-03-28T17:14:30.851Z,12.00
2019-03-28T17:17:00.809Z,11.90
2019-03-28T17:19:31.363Z,11.80
2019-03-28T17:22:05.895Z,11.70
2019-03-28T17:24:37.198Z,11.60
2019-03-28T17:27:07.760Z,11.50
2019-03-28T17:29:37.359Z,11.40
2019-03-28T17:32:06.970Z,11.30
2019-03-28T17:34:37.159Z,11.20
2019-03-28T17:37:07.177Z,11.10
2019-03-28T17:39:36.799Z,11.10
2019-03-28T17:42:06.445Z,11.00
2019-03-28T17:44:36.094Z,10.90
2019-03-28T17:47:05.736Z,10.80
2019-03-28T17:49:35.337Z,10.70
2019-03-28T17:52:04.941Z,10.70
2019-03-28T17:54:39.253Z,10.60
2019-03-28T17:57:08.850Z,10.50
2019-03-28T17:59:38.397Z,10.50
2019-03-28T18:02:08.086Z,10.40
2019-03-28T18:04:47.419Z,10.40
2019-03-28T18:07:09.015Z,10.40
2019-03-28T18:09:38.642Z,10.30
2019-03-28T18:12:08.247Z,10.30
2019-03-28T18:14:37.865Z,10.40
2019-03-28T18:17:07.494Z,10.40
2019-03-28T18:19:37.010Z,10.50
2019-03-28T18:22:06.628Z,10.50
2019-03-28T18:24:36.192Z,10.50
2019-03-28T18:27:05.786Z,10.50
2019-03-28T18:29:36.077Z,10.50
2019-03-28T18:32:05.750Z,10.60
2019-03-28T18:34:35.367Z,10.50
2019-03-28T18:37:04.955Z,10.50
2019-03-28T18:39:34.637Z,10.50
2019-03-28T18:42:05.096Z,10.50
2019-03-28T18:44:34.881Z,10.50
2019-03-28T18:47:04.546Z,10.50
2019-03-28T18:49:34.150Z,10.50
2019-03-28T18:52:07.029Z,10.50
2019-03-28T18:54:35.176Z,10.50
2019-03-28T18:57:04.778Z,10.50
2019-03-28T18:59:34.351Z,10.50
2019-03-28T19:02:03.991Z,10.50
2019-03-28T19:04:33.609Z,10.60
2019-03-28T19:07:03.207Z,10.50
2019-03-28T19:09:32.818Z,10.60
2019-03-28T19:12:02.418Z,10.60
2019-03-28T19:14:32.004Z,10.60
2019-03-28T19:17:01.675Z,10.50
2019-03-28T19:19:39.201Z,10.50
2019-03-28T19:22:02.633Z,10.50
2019-03-28T19:24:32.263Z,10.50
2019-03-28T19:27:01.892Z,10.50
2019-03-28T19:29:31.489Z,10.50
2019-03-28T19:32:01.098Z,10.40
2019-03-28T19:34:30.758Z,10.40
2019-03-28T19:37:00.275Z,10.30
2019-03-28T19:39:31.554Z,10.30
2019-03-28T19:42:04.273Z,10.30
2019-03-28T19:44:32.581Z,10.30
2019-03-28T19:47:02.186Z,10.20
2019-03-28T19:49:31.828Z,10.20
2019-03-28T19:52:01.457Z,10.20
2019-03-28T19:54:31.085Z,10.10
2019-03-28T19:57:00.794Z,10.10
2019-03-28T19:59:30.328Z,10.10
2019-03-28T20:01:59.851Z,10.10
2019-03-28T20:04:29.477Z,10.10
2019-03-28T20:06:59.074Z,10.00
2019-03-28T20:09:28.671Z,10.00
2019-03-28T20:12:02.847Z,9.90
2019-03-28T20:14:29.621Z,9.80
2019-03-28T20:16:59.226Z,9.70
2019-03-28T20:19:29.084Z,9.60
2019-03-28T20:21:59.631Z,9.60
2019-03-28T20:24:29.459Z,9.50
2019-03-28T20:26:59.033Z,9.40
2019-03-28T20:29:28.815Z,9.30
2019-03-28T20:31:58.414Z,9.20
2019-03-28T20:34:28.036Z,9.20
2019-03-28T20:36:57.626Z,9.10
2019-03-28T20:39:27.287Z,9.00
2019-03-28T20:41:56.961Z,9.00
2019-03-28T20:44:45.494Z,8.90
2019-03-28T20:47:15.115Z,8.90
2019-03-28T20:49:46.707Z,8.80
2019-03-28T20:52:16.154Z,8.70
2019-03-28T20:54:45.749Z,8.70
2019-03-28T20:57:15.366Z,8.60
2019-03-28T20:59:44.964Z,8.60
2019-03-28T21:02:14.542Z,8.50
2019-03-28T21:04:44.150Z,8.50
2019-03-28T21:07:14.015Z,8.40
2019-03-28T21:09:43.594Z,8.40
2019-03-28T21:12:13.235Z,8.30
2019-03-28T21:14:42.842Z,8.30
2019-03-28T21:17:12.454Z,8.30
2019-03-28T21:19:42.710Z,8.20
2019-03-28T21:22:12.422Z,8.20
2019-03-28T21:24:44.105Z,8.10
2019-03-28T21:27:13.715Z,8.20
2019-03-28T21:29:48.880Z,8.10
2019-03-28T21:32:14.886Z,8.10
2019-03-28T21:34:44.534Z,8.00
2019-03-28T21:37:14.263Z,8.00
2019-03-28T21:39:43.789Z,8.00
2019-03-28T21:42:13.394Z,7.90
2019-03-28T21:50:58.674Z,7.90
2019-03-28T21:53:28.274Z,7.80
2019-03-28T21:55:57.898Z,7.80
2019-03-28T21:58:27.509Z,7.70
2019-03-28T22:00:57.114Z,7.70
2019-03-28T22:03:26.792Z,7.70
2019-03-28T22:05:56.986Z,7.70
2019-03-28T22:08:26.642Z,7.60
2019-03-28T22:10:56.221Z,7.60
2019-03-28T22:13:25.778Z,7.50
2019-03-28T22:15:55.413Z,7.50
2019-03-28T22:18:24.934Z,7.50
2019-03-28T22:20:54.546Z,7.40
2019-03-28T22:23:24.070Z,7.40
2019-03-28T22:25:53.659Z,7.40
2019-03-28T22:28:23.282Z,7.30
2019-03-28T22:30:52.903Z,7.30
2019-03-28T22:33:22.439Z,7.20
2019-03-28T22:35:52.127Z,7.20
2019-03-28T22:38:21.766Z,7.20
2019-03-28T22:40:51.765Z,7.10
2019-03-28T22:43:21.338Z,7.10
2019-03-28T22:45:50.947Z,7.10
2019-03-28T22:48:20.569Z,7.10
2019-03-28T22:50:50.377Z,7.00
2019-03-28T22:53:20.030Z,7.00
2019-03-28T22:55:49.653Z,7.00
2019-03-28T22:58:19.270Z,7.00
2019-03-28T23:00:49.986Z,7.00
2019-03-28T23:03:20.815Z,7.00
2019-03-28T23:05:50.587Z,6.90
2019-03-28T23:08:20.177Z,6.90
2019-03-28T23:10:49.779Z,6.90
2019-03-28T23:13:19.310Z,6.90
2019-03-28T23:15:48.886Z,6.90
2019-03-28T23:18:18.499Z,6.90
2019-03-28T23:20:48.117Z,6.90
2019-03-28T23:23:17.729Z,6.90
2019-03-28T23:25:47.243Z,6.80
2019-03-28T23:28:16.782Z,6.80
2019-03-28T23:30:46.357Z,6.80
2019-03-28T23:33:15.900Z,6.80
2019-03-28T23:35:45.465Z,6.80
2019-03-28T23:38:15.062Z,6.80
2019-03-28T23:40:44.658Z,6.70
2019-03-28T23:43:14.285Z,6.70
2019-03-28T23:45:43.902Z,6.70
2019-03-28T23:48:13.418Z,6.60
2019-03-28T23:50:43.042Z,6.60
2019-03-28T23:53:12.630Z,6.60
2019-03-28T23:55:42.221Z,6.60
2019-03-28T23:58:11.800Z,6.60
